sensor_id;sensor_type;location;lat;lon;timestamp;temperature;humidity
44705;DHT22;30431;48.520;9.046;2024-03-08T00:00:21;3.00;99.90
44705;DHT22;30431;48.520;9.046;2024-03-08T00:02:49;2.80;99.90
44705;DHT22;30431;48.520;9.046;2024-03-08T00:05:18;2.80;99.90
44705;DHT22;30431;48.520;9.046;2024-03-08T00:07:45;2.80;99.90
44705;DHT22;30431;48.520;9.046;2024-03-08T00:10:13;2.80;99.90
44705;DHT22;30431;48.520;9.046;2024-03-08T00:12:43;2.70;99.90
44705;DHT22;30431;48.520;9.046;2024-03-08T00:15:15;2.70;99.90
44705;DHT22;30431;48.520;9.046;2024-03-08T00:17:45;2.60;99.90
44705;DHT22;30431;48.520;9.046;2024-03-08T00:20:16;2.50;99.90
44705;DHT22;30431;48.520;9.046;2024-03-08T00:22:48;2.50;99.90
44705;DHT22;30431;48.520;9.046;2024-03-08T00:25:17;2.50;99.90
44705;DHT22;30431;48.520;9.046;2024-03-08T00:27:45;2.40;99.90
44705;DHT22;30431;48.520;9.046;2024-03-08T00:30:12;2.40;99.90
44705;DHT22;30431;48.520;9.046;2024-03-08T00:32:42;2.30;99.90
44705;DHT22;30431;48.520;9.046;2024-03-08T00:35:09;2.20;99.90
44705;DHT22;30431;48.520;9.046;2024-03-08T00:37:36;2.20;99.90
44705;DHT22;30431;48.520;9.046;2024-03-08T00:40:03;2.10;99.90
44705;DHT22;30431;48.520;9.046;2024-03-08T00:42:34;2.10;99.90
44705;DHT22;30431;48.520;9.046;2024-03-08T00:45:01;2.00;99.90
44705;DHT22;30431;48.520;9.046;2024-03-08T00:47:28;1.90;99.90
44705;DHT22;30431;48.520;9.046;2024-03-08T00:49:55;2.00;99.90
44705;DHT22;30431;48.520;9.046;2024-03-08T00:52:23;2.00;99.90
44705;DHT22;30431;48.520;9.046;2024-03-08T00:54:53;2.00;99.90
44705;DHT22;30431;48.520;9.046;2024-03-08T00:57:21;1.90;99.90
44705;DHT22;30431;48.520;9.046;2024-03-08T00:59:48;1.80;99.90
44705;DHT22;30431;48.520;9.046;2024-03-08T01:02:15;1.70;99.90
44705;DHT22;30431;48.520;9.046;2024-03-08T01:04:45;1.70;99.90
44705;DHT22;30431;48.520;9.046;2024-03-08T01:07:14;1.70;99.90
44705;DHT22;30431;48.520;9.046;2024-03-08T01:09:41;1.70;99.90
44705;DHT22;30431;48.520;9.046;2024-03-08T01:12:08;1.60;99.90
44705;DHT22;30431;48.520;9.046;2024-03-08T01:14:35;1.70;99.90
44705;DHT22;30431;48.520;9.046;2024-03-08T01:17:02;1.70;99.90
44705;DHT22;30431;48.520;9.046;2024-03-08T01:19:31;1.70;99.90
44705;DHT22;30431;48.520;9.046;2024-03-08T01:21:59;1.70;99.90
44705;DHT22;30431;48.520;9.046;2024-03-08T01:24:26;1.60;99.90
44705;DHT22;30431;48.520;9.046;2024-03-08T01:26:54;1.60;99.90
44705;DHT22;30431;48.520;9.046;2024-03-08T01:29:21;1.60;99.90
44705;DHT22;30431;48.520;9.046;2024-03-08T01:31:51;1.60;99.90
44705;DHT22;30431;48.520;9.046;2024-03-08T01:34:20;1.50;99.90
44705;DHT22;30431;48.520;9.046;2024-03-08T01:36:48;1.50;99.90
44705;DHT22;30431;48.520;9.046;2024-03-08T01:39:15;1.40;99.90
44705;DHT22;30431;48.520;9.046;2024-03-08T01:41:44;1.40;99.90
44705;DHT22;30431;48.520;9.046;2024-03-08T01:44:14;1.30;99.90
44705;DHT22;30431;48.520;9.046;2024-03-08T01:46:45;1.30;99.90
44705;DHT22;30431;48.520;9.046;2024-03-08T01:49:15;1.20;99.90
44705;DHT22;30431;48.520;9.046;2024-03-08T01:51:45;1.20;99.90
44705;DHT22;30431;48.520;9.046;2024-03-08T01:54:12;1.20;99.90
44705;DHT22;30431;48.520;9.046;2024-03-08T01:56:40;1.10;99.90
44705;DHT22;30431;48.520;9.046;2024-03-08T01:59:10;1.10;99.90
44705;DHT22;30431;48.520;9.046;2024-03-08T02:01:39;1.10;99.90
44705;DHT22;30431;48.520;9.046;2024-03-08T02:04:06;1.10;99.90
44705;DHT22;30431;48.520;9.046;2024-03-08T02:06:33;1.10;99.90
44705;DHT22;30431;48.520;9.046;2024-03-08T02:09:04;1.10;99.90
44705;DHT22;30431;48.520;9.046;2024-03-08T02:11:37;1.10;99.90
44705;DHT22;30431;48.520;9.046;2024-03-08T02:14:04;1.00;99.90
44705;DHT22;30431;48.520;9.046;2024-03-08T02:16:35;1.10;99.90
44705;DHT22;30431;48.520;9.046;2024-03-08T02:19:02;1.20;99.90
44705;DHT22;30431;48.520;9.046;2024-03-08T02:21:30;1.10;99.90
44705;DHT22;30431;48.520;9.046;2024-03-08T02:23:58;1.10;99.90
44705;DHT22;30431;48.520;9.046;2024-03-08T02:26:31;1.00;99.90
44705;DHT22;30431;48.520;9.046;2024-03-08T02:28:58;1.00;99.90
44705;DHT22;30431;48.520;9.046;2024-03-08T02:31:25;0.90;99.90
44705;DHT22;30431;48.520;9.046;2024-03-08T02:33:52;0.80;99.90
44705;DHT22;30431;48.520;9.046;2024-03-08T02:36:19;0.80;99.90
44705;DHT22;30431;48.520;9.046;2024-03-08T02:38:46;0.80;99.90
44705;DHT22;30431;48.520;9.046;2024-03-08T02:41:13;0.80;99.90
44705;DHT22;30431;48.520;9.046;2024-03-08T02:43:40;0.80;99.90
44705;DHT22;30431;48.520;9.046;2024-03-08T02:46:09;0.90;99.90
44705;DHT22;30431;48.520;9.046;2024-03-08T02:48:37;0.90;99.90
44705;DHT22;30431;48.520;9.046;2024-03-08T02:51:07;0.90;99.90
44705;DHT22;30431;48.520;9.046;2024-03-08T02:53:34;1.00;99.90
44705;DHT22;30431;48.520;9.046;2024-03-08T02:56:02;0.90;99.90
44705;DHT22;30431;48.520;9.046;2024-03-08T02:58:29;0.80;99.90
44705;DHT22;30431;48.520;9.046;2024-03-08T03:00:56;0.70;99.90
44705;DHT22;30431;48.520;9.046;2024-03-08T03:03:24;0.70;99.90
44705;DHT22;30431;48.520;9.046;2024-03-08T03:05:51;0.70;99.90
44705;DHT22;30431;48.520;9.046;2024-03-08T03:08:18;0.70;99.90
44705;DHT22;30431;48.520;9.046;2024-03-08T03:10:46;0.70;99.90
44705;DHT22;30431;48.520;9.046;2024-03-08T03:13:13;0.70;99.90
44705;DHT22;30431;48.520;9.046;2024-03-08T03:15:46;0.70;99.90
44705;DHT22;30431;48.520;9.046;2024-03-08T03:18:14;0.80;99.90
44705;DHT22;30431;48.520;9.046;2024-03-08T03:20:44;0.90;99.90
44705;DHT22;30431;48.520;9.046;2024-03-08T03:23:11;0.80;99.90
44705;DHT22;30431;48.520;9.046;2024-03-08T03:25:42;0.80;99.90
44705;DHT22;30431;48.520;9.046;2024-03-08T03:28:09;0.80;99.90
44705;DHT22;30431;48.520;9.046;2024-03-08T03:30:40;0.70;99.90
44705;DHT22;30431;48.520;9.046;2024-03-08T03:33:10;0.60;99.90
44705;DHT22;30431;48.520;9.046;2024-03-08T03:35:39;0.60;99.90
44705;DHT22;30431;48.520;9.046;2024-03-08T03:38:08;0.70;99.90
44705;DHT22;30431;48.520;9.046;2024-03-08T03:40:39;0.70;99.90
44705;DHT22;30431;48.520;9.046;2024-03-08T03:43:08;0.60;99.90
44705;DHT22;30431;48.520;9.046;2024-03-08T03:45:39;0.60;99.90
44705;DHT22;30431;48.520;9.046;2024-03-08T03:48:13;0.60;99.90
44705;DHT22;30431;48.520;9.046;2024-03-08T03:50:40;0.70;99.90
44705;DHT22;30431;48.520;9.046;2024-03-08T03:53:11;0.70;99.90
44705;DHT22;30431;48.520;9.046;2024-03-08T03:55:40;0.60;99.90
44705;DHT22;30431;48.520;9.046;2024-03-08T03:58:08;0.50;99.90
44705;DHT22;30431;48.520;9.046;2024-03-08T04:00:40;0.60;99.90
44705;DHT22;30431;48.520;9.046;2024-03-08T04:03:07;0.70;99.90
44705;DHT22;30431;48.520;9.046;2024-03-08T04:05:35;0.80;99.90
44705;DHT22;30431;48.520;9.046;2024-03-08T04:08:05;0.70;99.90
44705;DHT22;30431;48.520;9.046;2024-03-08T04:10:33;0.80;99.90
44705;DHT22;30431;48.520;9.046;2024-03-08T04:13:00;0.70;99.90
44705;DHT22;30431;48.520;9.046;2024-03-08T04:15:27;0.70;99.90
44705;DHT22;30431;48.520;9.046;2024-03-08T04:17:54;0.60;99.90
44705;DHT22;30431;48.520;9.046;2024-03-08T04:20:21;0.50;99.90
44705;DHT22;30431;48.520;9.046;2024-03-08T04:22:48;0.40;99.90
44705;DHT22;30431;48.520;9.046;2024-03-08T04:25:16;0.40;99.90
44705;DHT22;30431;48.520;9.046;2024-03-08T04:27:44;0.40;99.90
44705;DHT22;30431;48.520;9.046;2024-03-08T04:30:11;0.40;99.90
44705;DHT22;30431;48.520;9.046;2024-03-08T04:32:41;0.40;99.90
44705;DHT22;30431;48.520;9.046;2024-03-08T04:35:11;0.60;99.90
44705;DHT22;30431;48.520;9.046;2024-03-08T04:37:41;0.70;99.90
44705;DHT22;30431;48.520;9.046;2024-03-08T04:40:08;0.70;99.90
44705;DHT22;30431;48.520;9.046;2024-03-08T04:42:37;0.90;99.90
44705;DHT22;30431;48.520;9.046;2024-03-08T04:45:06;1.00;99.90
44705;DHT22;30431;48.520;9.046;2024-03-08T04:47:36;1.00;99.90
44705;DHT22;30431;48.520;9.046;2024-03-08T04:50:04;1.10;99.90
44705;DHT22;30431;48.520;9.046;2024-03-08T04:52:31;1.20;99.90
44705;DHT22;30431;48.520;9.046;2024-03-08T04:54:58;1.20;99.90
44705;DHT22;30431;48.520;9.046;2024-03-08T04:57:25;1.40;99.90
44705;DHT22;30431;48.520;9.046;2024-03-08T04:59:52;1.50;99.90
44705;DHT22;30431;48.520;9.046;2024-03-08T05:02:19;1.50;99.90
44705;DHT22;30431;48.520;9.046;2024-03-08T05:04:49;1.60;99.90
44705;DHT22;30431;48.520;9.046;2024-03-08T05:07:17;1.70;99.90
44705;DHT22;30431;48.520;9.046;2024-03-08T05:09:46;1.90;99.90
44705;DHT22;30431;48.520;9.046;2024-03-08T05:12:19;2.00;99.90
44705;DHT22;30431;48.520;9.046;2024-03-08T05:14:48;2.10;99.90
44705;DHT22;30431;48.520;9.046;2024-03-08T05:17:17;2.20;99.90
44705;DHT22;30431;48.520;9.046;2024-03-08T05:19:44;2.30;99.90
44705;DHT22;30431;48.520;9.046;2024-03-08T05:22:11;2.30;99.90
44705;DHT22;30431;48.520;9.046;2024-03-08T05:24:38;2.20;99.90
44705;DHT22;30431;48.520;9.046;2024-03-08T05:27:05;2.10;99.90
44705;DHT22;30431;48.520;9.046;2024-03-08T05:29:35;2.00;99.90
44705;DHT22;30431;48.520;9.046;2024-03-08T05:32:05;2.00;99.90
44705;DHT22;30431;48.520;9.046;2024-03-08T05:34:33;2.00;99.90
44705;DHT22;30431;48.520;9.046;2024-03-08T05:37:00;2.10;99.90
44705;DHT22;30431;48.520;9.046;2024-03-08T05:39:29;2.00;99.90
44705;DHT22;30431;48.520;9.046;2024-03-08T05:41:57;2.00;99.90
44705;DHT22;30431;48.520;9.046;2024-03-08T05:44:24;2.10;99.90
44705;DHT22;30431;48.520;9.046;2024-03-08T05:46:51;2.30;99.90
44705;DHT22;30431;48.520;9.046;2024-03-08T05:49:17;2.50;99.90
44705;DHT22;30431;48.520;9.046;2024-03-08T05:51:45;2.70;99.90
44705;DHT22;30431;48.520;9.046;2024-03-08T05:54:14;2.70;99.90
44705;DHT22;30431;48.520;9.046;2024-03-08T05:56:45;2.80;99.90
44705;DHT22;30431;48.520;9.046;2024-03-08T05:59:14;2.90;99.90
44705;DHT22;30431;48.520;9.046;2024-03-08T06:01:43;3.00;99.90
44705;DHT22;30431;48.520;9.046;2024-03-08T06:04:10;2.80;99.90
44705;DHT22;30431;48.520;9.046;2024-03-08T06:06:41;2.90;99.90
44705;DHT22;30431;48.520;9.046;2024-03-08T06:09:12;2.90;99.90
44705;DHT22;30431;48.520;9.046;2024-03-08T06:11:53;2.90;99.90
44705;DHT22;30431;48.520;9.046;2024-03-08T06:14:21;3.10;99.90
44705;DHT22;30431;48.520;9.046;2024-03-08T06:16:48;3.00;99.90
44705;DHT22;30431;48.520;9.046;2024-03-08T06:19:17;3.10;99.90
44705;DHT22;30431;48.520;9.046;2024-03-08T06:21:44;3.20;99.90
44705;DHT22;30431;48.520;9.046;2024-03-08T06:24:11;3.40;99.90
44705;DHT22;30431;48.520;9.046;2024-03-08T06:26:39;3.50;99.90
44705;DHT22;30431;48.520;9.046;2024-03-08T06:29:06;3.50;99.90
44705;DHT22;30431;48.520;9.046;2024-03-08T06:31:36;3.60;99.90
44705;DHT22;30431;48.520;9.046;2024-03-08T06:34:12;3.60;99.90
44705;DHT22;30431;48.520;9.046;2024-03-08T06:36:39;3.60;99.90
44705;DHT22;30431;48.520;9.046;2024-03-08T06:39:06;3.70;99.90
44705;DHT22;30431;48.520;9.046;2024-03-08T06:41:42;3.80;99.90
44705;DHT22;30431;48.520;9.046;2024-03-08T06:44:11;3.80;99.90
44705;DHT22;30431;48.520;9.046;2024-03-08T06:46:38;3.90;99.90
44705;DHT22;30431;48.520;9.046;2024-03-08T06:49:05;4.00;99.90
44705;DHT22;30431;48.520;9.046;2024-03-08T06:51:34;4.10;99.90
44705;DHT22;30431;48.520;9.046;2024-03-08T06:54:01;4.20;99.90
44705;DHT22;30431;48.520;9.046;2024-03-08T06:56:30;4.30;99.90
44705;DHT22;30431;48.520;9.046;2024-03-08T06:58:57;4.40;99.90
44705;DHT22;30431;48.520;9.046;2024-03-08T07:01:26;4.30;99.90
44705;DHT22;30431;48.520;9.046;2024-03-08T07:03:58;4.30;99.90
44705;DHT22;30431;48.520;9.046;2024-03-08T07:06:26;4.30;99.90
44705;DHT22;30431;48.520;9.046;2024-03-08T07:08:53;4.30;99.90
44705;DHT22;30431;48.520;9.046;2024-03-08T07:11:20;4.40;99.90
44705;DHT22;30431;48.520;9.046;2024-03-08T07:13:47;4.40;99.90
44705;DHT22;30431;48.520;9.046;2024-03-08T07:16:16;4.50;99.90
44705;DHT22;30431;48.520;9.046;2024-03-08T07:18:43;4.60;99.90
44705;DHT22;30431;48.520;9.046;2024-03-08T07:21:11;4.70;99.90
44705;DHT22;30431;48.520;9.046;2024-03-08T07:23:38;4.70;99.90
44705;DHT22;30431;48.520;9.046;2024-03-08T07:26:29;4.80;99.90
44705;DHT22;30431;48.520;9.046;2024-03-08T07:29:01;4.90;99.90
44705;DHT22;30431;48.520;9.046;2024-03-08T07:31:28;4.90;99.90
44705;DHT22;30431;48.520;9.046;2024-03-08T07:34:04;4.90;99.90
44705;DHT22;30431;48.520;9.046;2024-03-08T07:36:34;5.00;99.90
44705;DHT22;30431;48.520;9.046;2024-03-08T07:39:04;5.00;99.90
44705;DHT22;30431;48.520;9.046;2024-03-08T07:41:38;5.00;99.90
44705;DHT22;30431;48.520;9.046;2024-03-08T07:44:09;5.10;99.90
44705;DHT22;30431;48.520;9.046;2024-03-08T07:46:41;5.10;99.90
44705;DHT22;30431;48.520;9.046;2024-03-08T07:49:09;5.20;99.90
44705;DHT22;30431;48.520;9.046;2024-03-08T07:51:38;5.30;99.90
44705;DHT22;30431;48.520;9.046;2024-03-08T07:54:07;5.40;99.90
44705;DHT22;30431;48.520;9.046;2024-03-08T07:59:04;5.50;99.90
44705;DHT22;30431;48.520;9.046;2024-03-08T08:01:32;5.60;99.90
44705;DHT22;30431;48.520;9.046;2024-03-08T08:04:01;5.70;99.90
44705;DHT22;30431;48.520;9.046;2024-03-08T08:06:28;5.60;99.90
44705;DHT22;30431;48.520;9.046;2024-03-08T08:08:59;5.60;99.90
44705;DHT22;30431;48.520;9.046;2024-03-08T08:11:27;5.70;99.90
44705;DHT22;30431;48.520;9.046;2024-03-08T08:13:57;5.80;99.90
44705;DHT22;30431;48.520;9.046;2024-03-08T08:16:36;5.80;99.90
44705;DHT22;30431;48.520;9.046;2024-03-08T08:19:04;5.90;99.90
44705;DHT22;30431;48.520;9.046;2024-03-08T08:21:37;6.00;99.90
44705;DHT22;30431;48.520;9.046;2024-03-08T08:24:05;5.90;99.90
44705;DHT22;30431;48.520;9.046;2024-03-08T08:26:33;6.10;99.90
44705;DHT22;30431;48.520;9.046;2024-03-08T08:29:04;6.00;99.90
44705;DHT22;30431;48.520;9.046;2024-03-08T08:31:34;6.10;99.90
44705;DHT22;30431;48.520;9.046;2024-03-08T08:34:01;6.10;99.90
44705;DHT22;30431;48.520;9.046;2024-03-08T08:36:29;6.20;99.90
44705;DHT22;30431;48.520;9.046;2024-03-08T08:38:57;6.30;99.70
44705;DHT22;30431;48.520;9.046;2024-03-08T08:41:26;6.40;99.00
44705;DHT22;30431;48.520;9.046;2024-03-08T08:43:54;6.50;99.00
44705;DHT22;30431;48.520;9.046;2024-03-08T08:46:36;6.60;98.80
44705;DHT22;30431;48.520;9.046;2024-03-08T08:49:10;6.60;98.80
44705;DHT22;30431;48.520;9.046;2024-03-08T08:51:37;6.60;98.50
44705;DHT22;30431;48.520;9.046;2024-03-08T08:54:05;6.60;98.00
44705;DHT22;30431;48.520;9.046;2024-03-08T08:56:37;6.70;98.00
44705;DHT22;30431;48.520;9.046;2024-03-08T08:59:06;6.80;97.70
44705;DHT22;30431;48.520;9.046;2024-03-08T09:01:35;6.80;97.80
44705;DHT22;30431;48.520;9.046;2024-03-08T09:04:02;7.00;96.50
44705;DHT22;30431;48.520;9.046;2024-03-08T09:06:30;6.90;96.40
44705;DHT22;30431;48.520;9.046;2024-03-08T09:08:57;6.80;96.90
44705;DHT22;30431;48.520;9.046;2024-03-08T09:11:24;6.90;97.50
44705;DHT22;30431;48.520;9.046;2024-03-08T09:13:57;6.80;97.50
44705;DHT22;30431;48.520;9.046;2024-03-08T09:16:28;7.00;97.00
44705;DHT22;30431;48.520;9.046;2024-03-08T09:18:57;7.10;97.10
44705;DHT22;30431;48.520;9.046;2024-03-08T09:21:25;7.20;96.50
44705;DHT22;30431;48.520;9.046;2024-03-08T09:23:51;7.30;96.50
44705;DHT22;30431;48.520;9.046;2024-03-08T09:26:19;7.40;96.50
44705;DHT22;30431;48.520;9.046;2024-03-08T09:28:57;7.40;96.00
44705;DHT22;30431;48.520;9.046;2024-03-08T09:31:24;7.50;96.60
44705;DHT22;30431;48.520;9.046;2024-03-08T09:33:52;7.50;95.60
44705;DHT22;30431;48.520;9.046;2024-03-08T09:36:22;7.40;95.90
44705;DHT22;30431;48.520;9.046;2024-03-08T09:38:49;7.50;95.60
44705;DHT22;30431;48.520;9.046;2024-03-08T09:41:16;7.70;95.60
44705;DHT22;30431;48.520;9.046;2024-03-08T09:43:45;7.60;95.60
44705;DHT22;30431;48.520;9.046;2024-03-08T09:46:15;7.80;95.00
44705;DHT22;30431;48.520;9.046;2024-03-08T09:48:46;8.00;94.90
44705;DHT22;30431;48.520;9.046;2024-03-08T09:51:17;7.90;93.90
44705;DHT22;30431;48.520;9.046;2024-03-08T09:53:46;7.80;94.30
44705;DHT22;30431;48.520;9.046;2024-03-08T09:56:13;7.90;95.20
44705;DHT22;30431;48.520;9.046;2024-03-08T09:58:40;8.00;94.40
44705;DHT22;30431;48.520;9.046;2024-03-08T10:01:42;8.10;94.40
44705;DHT22;30431;48.520;9.046;2024-03-08T10:04:11;8.10;94.50
44705;DHT22;30431;48.520;9.046;2024-03-08T10:06:40;8.30;93.70
44705;DHT22;30431;48.520;9.046;2024-03-08T10:09:07;8.40;93.20
44705;DHT22;30431;48.520;9.046;2024-03-08T10:11:34;8.30;92.80
44705;DHT22;30431;48.520;9.046;2024-03-08T10:14:01;8.30;93.10
44705;DHT22;30431;48.520;9.046;2024-03-08T10:16:29;8.40;93.10
44705;DHT22;30431;48.520;9.046;2024-03-08T10:18:58;8.40;93.20
44705;DHT22;30431;48.520;9.046;2024-03-08T10:21:29;8.50;93.80
44705;DHT22;30431;48.520;9.046;2024-03-08T10:23:56;8.60;92.40
44705;DHT22;30431;48.520;9.046;2024-03-08T10:26:25;8.70;93.00
44705;DHT22;30431;48.520;9.046;2024-03-08T10:28:52;8.80;92.40
44705;DHT22;30431;48.520;9.046;2024-03-08T10:31:20;9.00;92.10
44705;DHT22;30431;48.520;9.046;2024-03-08T10:33:50;9.10;91.70
44705;DHT22;30431;48.520;9.046;2024-03-08T10:36:17;9.20;92.10
44705;DHT22;30431;48.520;9.046;2024-03-08T10:38:46;9.40;91.50
44705;DHT22;30431;48.520;9.046;2024-03-08T10:41:16;9.40;92.10
44705;DHT22;30431;48.520;9.046;2024-03-08T10:49:12;9.70;91.40
44705;DHT22;30431;48.520;9.046;2024-03-08T10:51:43;9.70;91.50
44705;DHT22;30431;48.520;9.046;2024-03-08T10:54:11;9.80;90.70
44705;DHT22;30431;48.520;9.046;2024-03-08T10:56:38;9.80;90.80
44705;DHT22;30431;48.520;9.046;2024-03-08T10:59:10;9.60;90.70
44705;DHT22;30431;48.520;9.046;2024-03-08T11:01:40;10.00;90.00
44705;DHT22;30431;48.520;9.046;2024-03-08T11:04:08;10.20;88.50
44705;DHT22;30431;48.520;9.046;2024-03-08T11:09:32;9.50;90.50
44705;DHT22;30431;48.520;9.046;2024-03-08T11:12:25;9.80;90.60
44705;DHT22;30431;48.520;9.046;2024-03-08T11:14:53;10.30;89.80
44705;DHT22;30431;48.520;9.046;2024-03-08T11:20:11;10.10;88.10
44705;DHT22;30431;48.520;9.046;2024-03-08T11:22:51;10.20;88.30
44705;DHT22;30431;48.520;9.046;2024-03-08T11:25:40;10.10;87.80
44705;DHT22;30431;48.520;9.046;2024-03-08T11:28:19;10.30;87.70
44705;DHT22;30431;48.520;9.046;2024-03-08T11:33:34;10.10;88.10
44705;DHT22;30431;48.520;9.046;2024-03-08T11:36:12;9.80;90.30
44705;DHT22;30431;48.520;9.046;2024-03-08T11:38:49;9.70;90.40
44705;DHT22;30431;48.520;9.046;2024-03-08T11:41:22;9.80;90.20
44705;DHT22;30431;48.520;9.046;2024-03-08T11:44:04;9.60;90.40
44705;DHT22;30431;48.520;9.046;2024-03-08T11:46:36;9.80;89.60
44705;DHT22;30431;48.520;9.046;2024-03-08T11:49:03;9.70;90.30
44705;DHT22;30431;48.520;9.046;2024-03-08T11:51:30;9.30;90.20
44705;DHT22;30431;48.520;9.046;2024-03-08T11:53:58;9.00;90.30
44705;DHT22;30431;48.520;9.046;2024-03-08T11:56:28;8.70;91.70
44705;DHT22;30431;48.520;9.046;2024-03-08T11:58:56;8.50;92.00
44705;DHT22;30431;48.520;9.046;2024-03-08T12:01:26;8.10;92.60
44705;DHT22;30431;48.520;9.046;2024-03-08T12:03:55;7.90;93.40
44705;DHT22;30431;48.520;9.046;2024-03-08T12:06:27;7.90;94.10
44705;DHT22;30431;48.520;9.046;2024-03-08T12:09:10;8.00;94.00
44705;DHT22;30431;48.520;9.046;2024-03-08T12:11:40;8.00;93.50
44705;DHT22;30431;48.520;9.046;2024-03-08T12:14:07;8.00;93.60
44705;DHT22;30431;48.520;9.046;2024-03-08T12:16:36;8.10;93.30
44705;DHT22;30431;48.520;9.046;2024-03-08T12:19:08;8.10;93.60
44705;DHT22;30431;48.520;9.046;2024-03-08T12:21:36;8.20;93.70
44705;DHT22;30431;48.520;9.046;2024-03-08T12:24:08;8.20;93.50
44705;DHT22;30431;48.520;9.046;2024-03-08T12:26:37;8.30;93.70
44705;DHT22;30431;48.520;9.046;2024-03-08T12:29:20;8.40;92.90
44705;DHT22;30431;48.520;9.046;2024-03-08T12:31:54;8.50;92.80
44705;DHT22;30431;48.520;9.046;2024-03-08T12:34:21;8.50;93.00
44705;DHT22;30431;48.520;9.046;2024-03-08T12:36:58;8.40;93.00
44705;DHT22;30431;48.520;9.046;2024-03-08T12:39:30;8.30;93.40
44705;DHT22;30431;48.520;9.046;2024-03-08T12:41:57;8.40;92.90
44705;DHT22;30431;48.520;9.046;2024-03-08T12:44:29;8.20;93.50
44705;DHT22;30431;48.520;9.046;2024-03-08T12:46:56;8.30;93.50
44705;DHT22;30431;48.520;9.046;2024-03-08T12:49:26;8.30;93.40
44705;DHT22;30431;48.520;9.046;2024-03-08T12:51:54;8.10;93.60
44705;DHT22;30431;48.520;9.046;2024-03-08T12:54:21;8.20;93.50
44705;DHT22;30431;48.520;9.046;2024-03-08T12:56:51;8.10;93.60
44705;DHT22;30431;48.520;9.046;2024-03-08T12:59:23;8.20;94.00
44705;DHT22;30431;48.520;9.046;2024-03-08T13:01:53;8.30;93.60
44705;DHT22;30431;48.520;9.046;2024-03-08T13:04:46;8.30;93.40
44705;DHT22;30431;48.520;9.046;2024-03-08T13:07:22;8.40;93.70
44705;DHT22;30431;48.520;9.046;2024-03-08T13:09:50;8.40;93.50
44705;DHT22;30431;48.520;9.046;2024-03-08T13:12:20;8.50;93.40
44705;DHT22;30431;48.520;9.046;2024-03-08T13:14:47;8.50;93.50
44705;DHT22;30431;48.520;9.046;2024-03-08T13:17:17;8.50;93.50
44705;DHT22;30431;48.520;9.046;2024-03-08T13:19:45;8.50;93.00
44705;DHT22;30431;48.520;9.046;2024-03-08T13:22:14;8.50;93.30
44705;DHT22;30431;48.520;9.046;2024-03-08T13:24:45;8.60;93.20
44705;DHT22;30431;48.520;9.046;2024-03-08T13:27:14;8.60;93.00
44705;DHT22;30431;48.520;9.046;2024-03-08T13:29:48;8.50;93.40
44705;DHT22;30431;48.520;9.046;2024-03-08T13:32:16;8.50;93.60
44705;DHT22;30431;48.520;9.046;2024-03-08T13:34:46;8.50;94.00
44705;DHT22;30431;48.520;9.046;2024-03-08T13:37:14;8.50;93.80
44705;DHT22;30431;48.520;9.046;2024-03-08T13:39:43;8.60;93.80
44705;DHT22;30431;48.520;9.046;2024-03-08T13:42:13;8.70;93.20
44705;DHT22;30431;48.520;9.046;2024-03-08T13:47:16;8.80;93.20
44705;DHT22;30431;48.520;9.046;2024-03-08T13:49:44;8.90;93.10
44705;DHT22;30431;48.520;9.046;2024-03-08T13:52:33;8.90;93.30
44705;DHT22;30431;48.520;9.046;2024-03-08T13:55:02;9.00;92.80
44705;DHT22;30431;48.520;9.046;2024-03-08T13:57:29;8.90;92.60
44705;DHT22;30431;48.520;9.046;2024-03-08T13:59:56;8.90;93.00
44705;DHT22;30431;48.520;9.046;2024-03-08T14:02:24;8.90;93.40
44705;DHT22;30431;48.520;9.046;2024-03-08T14:04:55;9.00;93.60
44705;DHT22;30431;48.520;9.046;2024-03-08T14:07:22;9.00;93.20
44705;DHT22;30431;48.520;9.046;2024-03-08T14:09:52;9.00;93.40
44705;DHT22;30431;48.520;9.046;2024-03-08T14:12:19;9.10;93.00
44705;DHT22;30431;48.520;9.046;2024-03-08T14:14:48;9.10;92.70
44705;DHT22;30431;48.520;9.046;2024-03-08T14:17:18;9.30;92.30
44705;DHT22;30431;48.520;9.046;2024-03-08T14:19:51;9.30;91.90
44705;DHT22;30431;48.520;9.046;2024-03-08T14:22:32;9.30;92.10
44705;DHT22;30431;48.520;9.046;2024-03-08T14:24:59;9.40;91.80
44705;DHT22;30431;48.520;9.046;2024-03-08T14:27:51;9.40;92.10
44705;DHT22;30431;48.520;9.046;2024-03-08T14:30:25;9.40;92.20
44705;DHT22;30431;48.520;9.046;2024-03-08T14:33:21;9.50;91.10
44705;DHT22;30431;48.520;9.046;2024-03-08T14:35:48;9.50;91.00
44705;DHT22;30431;48.520;9.046;2024-03-08T14:38:16;9.50;91.10
44705;DHT22;30431;48.520;9.046;2024-03-08T14:40:44;9.50;91.20
44705;DHT22;30431;48.520;9.046;2024-03-08T14:43:17;9.50;91.30
44705;DHT22;30431;48.520;9.046;2024-03-08T14:45:47;9.50;91.70
44705;DHT22;30431;48.520;9.046;2024-03-08T14:48:14;9.50;92.10
44705;DHT22;30431;48.520;9.046;2024-03-08T14:50:41;9.60;92.40
44705;DHT22;30431;48.520;9.046;2024-03-08T14:53:10;9.60;91.70
44705;DHT22;30431;48.520;9.046;2024-03-08T14:55:39;9.60;90.70
44705;DHT22;30431;48.520;9.046;2024-03-08T14:58:06;9.60;90.90
44705;DHT22;30431;48.520;9.046;2024-03-08T15:00:33;9.70;91.80
44705;DHT22;30431;48.520;9.046;2024-03-08T15:03:01;9.70;91.80
44705;DHT22;30431;48.520;9.046;2024-03-08T15:05:36;9.70;92.20
44705;DHT22;30431;48.520;9.046;2024-03-08T15:08:08;9.70;92.20
44705;DHT22;30431;48.520;9.046;2024-03-08T15:10:46;9.70;92.30
44705;DHT22;30431;48.520;9.046;2024-03-08T15:13:15;9.70;92.10
44705;DHT22;30431;48.520;9.046;2024-03-08T15:15:50;9.70;91.80
44705;DHT22;30431;48.520;9.046;2024-03-08T15:18:25;9.80;91.90
44705;DHT22;30431;48.520;9.046;2024-03-08T15:20:55;9.70;92.20
44705;DHT22;30431;48.520;9.046;2024-03-08T15:23:22;9.80;92.30
44705;DHT22;30431;48.520;9.046;2024-03-08T15:25:49;9.80;91.90
44705;DHT22;30431;48.520;9.046;2024-03-08T15:28:18;9.80;92.30
44705;DHT22;30431;48.520;9.046;2024-03-08T15:30:54;9.80;91.90
44705;DHT22;30431;48.520;9.046;2024-03-08T15:33:24;9.80;91.70
44705;DHT22;30431;48.520;9.046;2024-03-08T15:35:54;9.80;92.00
44705;DHT22;30431;48.520;9.046;2024-03-08T15:38:35;9.70;91.60
44705;DHT22;30431;48.520;9.046;2024-03-08T15:41:06;9.70;91.80
44705;DHT22;30431;48.520;9.046;2024-03-08T15:43:40;9.60;92.00
44705;DHT22;30431;48.520;9.046;2024-03-08T15:46:10;9.60;91.80
44705;DHT22;30431;48.520;9.046;2024-03-08T15:48:38;9.60;92.00
44705;DHT22;30431;48.520;9.046;2024-03-08T15:51:08;9.60;92.10
44705;DHT22;30431;48.520;9.046;2024-03-08T15:53:40;9.60;91.50
44705;DHT22;30431;48.520;9.046;2024-03-08T15:56:10;9.60;91.40
44705;DHT22;30431;48.520;9.046;2024-03-08T15:58:39;9.70;91.40
44705;DHT22;30431;48.520;9.046;2024-03-08T16:01:06;9.60;91.50
44705;DHT22;30431;48.520;9.046;2024-03-08T16:03:34;9.60;91.50
44705;DHT22;30431;48.520;9.046;2024-03-08T16:06:00;9.70;91.60
44705;DHT22;30431;48.520;9.046;2024-03-08T16:08:27;9.60;91.60
44705;DHT22;30431;48.520;9.046;2024-03-08T16:11:00;9.60;91.70
44705;DHT22;30431;48.520;9.046;2024-03-08T16:13:30;9.50;91.90
44705;DHT22;30431;48.520;9.046;2024-03-08T16:15:57;9.40;92.20
44705;DHT22;30431;48.520;9.046;2024-03-08T16:18:31;9.40;92.40